PWSweather.com
Personal Weather Stations
Station Observations
WISCHPK61
Green Bay Schmitt Park, Green Bay, WI 54311

Green Bay Schmitt ParkGreen Bay, WI 54311

Lat: 44.514277, Lon: -87.935067

Elevation: 735

Station Type: Acu Rite Pro Weather Center model 02032C

http://greenbayweathercam.com

High Low Average
Temperature 51.9°F11.1°C 19.9°F-6.7°C 33.4°F0.8°C
Dew Point 51.7°F10.9°C 16.3°F-8.7°C 31.6°F-0.2°C
Winds Calm Calm Calm Calm Calm SSWCalm SSW
Wind Gusts 1.2 mph1.9 kmh -- --
Humidity 99% 60% 93%
Pressure 29.61 in1002.7 mb 29.55 in1000.7 mb -
Precipitation 0.00 in0.0 mm - -
Hour Temp Dew Point Humidity Winds Wind Gusts Pressure Precip Precip Rate Daily Precip Total
12:00 AM 27.1°F-2.7°C 26.9°F-2.8°C 99% Calm Calm -- 29.54 in1000.3 mb - 0.00 in0.0 mm 0.00 in0.0 mm
01:00 AM 27.5°F-2.5°C 19.0°F-7.2°C 70% Calm Calm -- 29.55 in1000.7 mb - 0.00 in0.0 mm 0.00 in0.0 mm
02:00 AM 25.9°F-3.4°C 20.9°F-6.2°C 81% Calm Calm -- 29.56 in1001.0 mb - 0.00 in0.0 mm 0.00 in0.0 mm
03:00 AM 23.5°F-4.7°C 23.3°F-4.8°C 99% Calm Calm -- 29.57 in1001.4 mb - 0.00 in0.0 mm 0.00 in0.0 mm
04:00 AM 22.5°F-5.3°C 22.3°F-5.4°C 99% Calm Calm -- 29.57 in1001.4 mb - 0.00 in0.0 mm 0.00 in0.0 mm
05:00 AM 21.5°F-5.8°C 16.3°F-8.7°C 80% Calm Calm -- 29.57 in1001.4 mb - 0.00 in0.0 mm 0.00 in0.0 mm
06:00 AM 20.8°F-6.2°C 17.8°F-7.9°C 88% Calm Calm -- 29.58 in1001.7 mb - 0.00 in0.0 mm 0.00 in0.0 mm
07:00 AM 19.9°F-6.7°C 19.7°F-6.8°C 99% Calm Calm -- 29.59 in1002.0 mb - 0.00 in0.0 mm 0.00 in0.0 mm
08:00 AM 21.7°F-5.7°C 21.5°F-5.8°C 99% Calm Calm -- 29.60 in1002.4 mb - 0.00 in0.0 mm 0.00 in0.0 mm
09:00 AM 28.7°F-1.8°C 28.5°F-1.9°C 99% Calm Calm -- 29.60 in1002.4 mb - 0.00 in0.0 mm 0.00 in0.0 mm
10:00 AM 37.7°F3.2°C 37.5°F3.1°C 99% Calm Calm -- 29.61 in1002.7 mb - 0.00 in0.0 mm 0.00 in0.0 mm
11:00 AM 41.6°F5.3°C 41.3°F5.2°C 99% Calm Calm -- 29.61 in1002.7 mb - 0.00 in0.0 mm 0.00 in0.0 mm
12:00 PM 46.9°F8.3°C 46.6°F8.1°C 99% Calm Calm -- 29.61 in1002.7 mb - 0.00 in0.0 mm 0.00 in0.0 mm
01:00 PM 49.9°F9.9°C 49.6°F9.8°C 99% Calm Calm -- 29.60 in1002.4 mb - 0.00 in0.0 mm 0.00 in0.0 mm
02:00 PM 51.9°F11.1°C 51.7°F10.9°C 99% Calm Calm 1.2 mph1.9 kmh 29.59 in1002.0 mb - 0.00 in0.0 mm 0.00 in0.0 mm
03:00 PM 47.1°F8.4°C 46.8°F8.2°C 99% Calm Calm -- 29.57 in1001.4 mb - 0.00 in0.0 mm 0.00 in0.0 mm
04:00 PM 42.8°F6.0°C 42.5°F5.8°C 99% Calm Calm -- 29.57 in1001.4 mb - 0.00 in0.0 mm 0.00 in0.0 mm
05:00 PM 41.4°F5.2°C 41.1°F5.1°C 99% Calm Calm -- 29.56 in1001.0 mb - 0.00 in0.0 mm 0.00 in0.0 mm
06:00 PM 38.9°F3.8°C 38.7°F3.7°C 99% Calm Calm -- 29.57 in1001.4 mb - 0.00 in0.0 mm 0.00 in0.0 mm
07:00 PM 36.7°F2.6°C 36.4°F2.4°C 99% Calm Calm -- 29.57 in1001.4 mb - 0.00 in0.0 mm 0.00 in0.0 mm
08:00 PM 33.5°F0.8°C 33.2°F0.7°C 99% Calm Calm -- 29.57 in1001.4 mb - 0.00 in0.0 mm 0.00 in0.0 mm
09:00 PM 32.0°F0.0°C 19.7°F-6.8°C 60% Calm Calm -- 29.57 in1001.4 mb - 0.00 in0.0 mm 0.00 in0.0 mm
10:00 PM 30.7°F-0.7°C 30.5°F-0.8°C 99% Calm Calm -- 29.58 in1001.7 mb - 0.00 in0.0 mm 0.00 in0.0 mm
11:00 PM 30.0°F-1.1°C 29.8°F-1.2°C 99% Calm Calm -- 29.58 in1001.7 mb - 0.00 in0.0 mm 0.00 in0.0 mm